createdAt,value
2022-08-04T00:04:33.984Z,22.77
2022-08-04T00:09:44.141Z,22.82
2022-08-04T00:14:54.799Z,22.70
2022-08-04T00:20:01.102Z,22.49
2022-08-04T00:25:05.092Z,22.27
2022-08-04T00:30:07.938Z,22.19
2022-08-04T00:35:10.711Z,22.12
2022-08-04T00:40:29.034Z,22.06
2022-08-04T00:46:15.201Z,22.13
2022-08-04T00:51:36.667Z,22.04
2022-08-04T00:56:44.017Z,22.00
2022-08-04T01:02:14.619Z,22.08
2022-08-04T01:07:48.997Z,21.96
2022-08-04T01:13:20.732Z,21.98
2022-08-04T01:18:31.351Z,21.88
2022-08-04T01:24:03.919Z,21.84
2022-08-04T01:29:15.050Z,21.81
2022-08-04T01:34:20.491Z,21.75
2022-08-04T01:39:40.663Z,21.72
2022-08-04T01:44:42.971Z,21.78
2022-08-04T01:49:49.196Z,21.74
2022-08-04T01:54:50.922Z,21.63
2022-08-04T01:59:53.611Z,21.78
2022-08-04T02:04:57.856Z,21.81
2022-08-04T02:10:08.474Z,21.77
2022-08-04T02:15:31.740Z,21.84
2022-08-04T02:20:37.958Z,21.75
2022-08-04T02:25:58.420Z,21.69
2022-08-04T02:31:28.816Z,21.74
2022-08-04T02:36:40.436Z,21.91
2022-08-04T02:41:43.958Z,21.83
2022-08-04T02:46:48.071Z,22.03
2022-08-04T02:51:52.211Z,22.15
2022-08-04T02:56:55.801Z,22.21
2022-08-04T03:01:58.505Z,22.17
2022-08-04T03:07:19.162Z,22.14
2022-08-04T03:12:49.914Z,22.18
2022-08-04T03:18:22.498Z,22.23
2022-08-04T03:23:51.830Z,22.30
2022-08-04T03:29:13.678Z,22.30
2022-08-04T03:34:36.640Z,22.31
2022-08-04T03:40:10.725Z,22.34
2022-08-04T03:45:37.440Z,22.41
2022-08-04T03:50:44.630Z,22.51
2022-08-04T03:56:24.529Z,22.37
2022-08-04T04:02:01.336Z,22.39
2022-08-04T04:07:16.929Z,22.36
2022-08-04T04:12:27.261Z,22.45
2022-08-04T04:17:56.107Z,22.41
2022-08-04T04:23:23.643Z,22.39
2022-08-04T04:28:56.637Z,22.36
2022-08-04T04:34:29.316Z,22.51
2022-08-04T04:39:36.734Z,22.59
2022-08-04T04:44:47.714Z,22.69
2022-08-04T04:50:04.589Z,22.72
2022-08-04T04:55:26.797Z,22.82
2022-08-04T05:00:59.509Z,22.85
2022-08-04T05:06:15.093Z,22.91
2022-08-04T05:11:31.317Z,23.02
2022-08-04T05:16:36.062Z,23.11
2022-08-04T05:21:51.430Z,23.22
2022-08-04T05:27:02.016Z,23.34
2022-08-04T05:32:12.776Z,23.71
2022-08-04T05:37:20.700Z,23.65
2022-08-04T05:42:23.559Z,23.92
2022-08-04T05:47:27.068Z,24.15
2022-08-04T05:52:31.054Z,24.20
2022-08-04T05:57:33.433Z,24.47
2022-08-04T06:02:37.762Z,24.75
2022-08-04T06:08:12.709Z,25.29
2022-08-04T06:13:08.527Z,26.17
2022-08-04T06:19:56.724Z,26.40
2022-08-04T06:23:37.192Z,26.98
2022-08-04T06:28:56.783Z,27.55
2022-08-04T06:34:02.850Z,27.82
2022-08-04T06:39:05.697Z,28.13
2022-08-04T06:44:11.399Z,28.49
2022-08-04T06:49:14.573Z,28.61
2022-08-04T06:54:16.320Z,29.22
2022-08-04T06:59:20.324Z,29.22
2022-08-04T07:04:22.176Z,29.64
2022-08-04T07:09:24.025Z,29.82
2022-08-04T07:14:27.385Z,30.15
2022-08-04T07:19:28.939Z,30.71
2022-08-04T07:24:36.300Z,30.61
2022-08-04T07:29:38.735Z,30.91
2022-08-04T07:34:41.995Z,31.39
2022-08-04T07:39:47.620Z,31.77
2022-08-04T07:44:50.318Z,31.86
2022-08-04T07:49:57.760Z,32.12
2022-08-04T07:55:00.304Z,32.03
2022-08-04T08:00:04.767Z,32.30
2022-08-04T08:05:14.790Z,32.00
2022-08-04T08:10:17.185Z,32.24
2022-08-04T08:15:19.834Z,32.54
2022-08-04T08:20:29.843Z,32.74
2022-08-04T08:25:33.849Z,32.95
2022-08-04T08:30:35.771Z,33.26
2022-08-04T08:36:06.982Z,33.45
2022-08-04T08:41:29.842Z,33.77
2022-08-04T08:46:49.819Z,34.41
2022-08-04T08:52:55.039Z,34.25
2022-08-04T08:58:16.145Z,34.98
2022-08-04T09:03:47.865Z,35.03
2022-08-04T09:09:10.482Z,35.49
2022-08-04T09:14:24.393Z,35.47
2022-08-04T09:19:37.919Z,35.85
2022-08-04T09:25:11.660Z,35.88
2022-08-04T09:30:16.968Z,36.29
2022-08-04T09:35:33.955Z,37.00
2022-08-04T09:41:20.674Z,37.39
2022-08-04T09:47:05.927Z,37.80
2022-08-04T09:52:23.843Z,37.53
2022-08-04T09:57:32.220Z,38.22
2022-08-04T10:02:43.964Z,39.02
2022-08-04T10:08:15.360Z,38.74
2022-08-04T10:13:57.384Z,38.08
2022-08-04T10:19:08.573Z,38.68
2022-08-04T10:24:31.639Z,38.83
2022-08-04T10:29:38.941Z,38.53
2022-08-04T10:34:56.524Z,38.80
2022-08-04T10:41:02.388Z,39.09
2022-08-04T10:46:19.210Z,39.35
2022-08-04T10:51:57.219Z,39.20
2022-08-04T10:57:08.755Z,39.30
2022-08-04T11:02:25.245Z,39.80
2022-08-04T11:07:32.362Z,40.05
2022-08-04T11:12:35.541Z,40.15
2022-08-04T11:17:47.141Z,40.16
2022-08-04T11:23:03.850Z,39.88
2022-08-04T11:28:23.433Z,40.30
2022-08-04T11:33:40.246Z,39.80
2022-08-04T11:39:13.235Z,39.18
2022-08-04T11:45:10.647Z,39.44
2022-08-04T11:50:32.961Z,39.88
2022-08-04T11:56:07.193Z,39.63
2022-08-04T12:01:22.726Z,39.95
2022-08-04T12:06:38.863Z,39.85
2022-08-04T12:11:47.068Z,39.80
2022-08-04T12:16:57.206Z,39.26
2022-08-04T12:22:03.926Z,38.26
2022-08-04T12:27:13.308Z,38.14
2022-08-04T12:32:21.274Z,38.44
2022-08-04T12:37:47.123Z,38.51
2022-08-04T12:43:13.640Z,38.40
2022-08-04T12:48:21.087Z,37.48
2022-08-04T12:53:32.674Z,36.98
2022-08-04T12:58:41.912Z,37.44
2022-08-04T13:03:58.914Z,38.18
2022-08-04T13:09:17.606Z,37.92
2022-08-04T13:14:27.566Z,38.07
2022-08-04T13:19:31.052Z,37.12
2022-08-04T13:24:41.646Z,36.58
2022-08-04T13:30:03.832Z,36.04
2022-08-04T13:35:09.302Z,36.42
2022-08-04T13:40:15.261Z,36.34
2022-08-04T13:45:21.354Z,36.32
2022-08-04T13:50:32.240Z,36.11
2022-08-04T13:55:36.301Z,36.09
2022-08-04T14:01:03.116Z,35.46
2022-08-04T14:06:14.844Z,35.28
2022-08-04T14:12:09.953Z,35.14
2022-08-04T14:17:03.757Z,34.88
2022-08-04T14:22:05.407Z,34.83
2022-08-04T14:27:07.055Z,35.67
2022-08-04T14:32:14.540Z,35.48
2022-08-04T14:37:20.631Z,35.50
2022-08-04T14:42:44.684Z,35.77
2022-08-04T14:47:58.232Z,35.80
2022-08-04T14:53:09.049Z,35.61
2022-08-04T14:58:40.133Z,35.17
2022-08-04T15:03:50.697Z,35.36
2022-08-04T15:08:57.925Z,35.78
2022-08-04T15:13:59.990Z,35.65
2022-08-04T15:19:02.084Z,35.47
2022-08-04T15:24:04.171Z,35.18
2022-08-04T15:29:16.385Z,35.07
2022-08-04T15:34:18.718Z,34.77
2022-08-04T15:39:51.522Z,34.68
2022-08-04T15:44:59.578Z,34.45
2022-08-04T15:50:13.342Z,34.93
2022-08-04T15:55:34.821Z,36.33
2022-08-04T16:01:05.300Z,36.83
2022-08-04T16:06:13.141Z,36.24
2022-08-04T16:11:31.621Z,35.93
2022-08-04T16:16:36.878Z,35.31
2022-08-04T16:22:00.142Z,35.02
2022-08-04T16:27:04.278Z,34.86
2022-08-04T16:32:06.268Z,34.73
2022-08-04T16:37:13.724Z,34.33
2022-08-04T16:42:27.734Z,34.25
2022-08-04T16:47:47.615Z,34.36
2022-08-04T16:52:51.616Z,34.43
2022-08-04T16:57:55.595Z,34.33
2022-08-04T17:02:57.698Z,34.32
2022-08-04T17:08:27.308Z,34.27
2022-08-04T17:14:02.815Z,34.09
2022-08-04T17:18:55.457Z,34.11
2022-08-04T17:24:16.115Z,34.05
2022-08-04T17:29:19.779Z,33.86
2022-08-04T17:34:22.200Z,33.76
2022-08-04T17:39:35.060Z,33.57
2022-08-04T17:44:40.443Z,33.48
2022-08-04T17:49:44.547Z,33.30
2022-08-04T17:55:04.028Z,33.14
2022-08-04T18:00:06.654Z,33.02
2022-08-04T18:05:12.293Z,32.60
2022-08-04T18:10:30.525Z,32.39
2022-08-04T18:15:44.054Z,32.51
2022-08-04T18:20:50.206Z,32.31
2022-08-04T18:25:52.345Z,32.24
2022-08-04T18:30:55.347Z,32.11
2022-08-04T18:36:34.461Z,31.85
2022-08-04T18:41:19.578Z,31.68
2022-08-04T18:46:21.327Z,31.69
2022-08-04T18:51:24.943Z,31.25
2022-08-04T18:56:33.421Z,30.83
2022-08-04T19:02:13.609Z,30.58
2022-08-04T19:07:25.149Z,30.35
2022-08-04T19:12:27.158Z,30.05
2022-08-04T19:17:53.978Z,29.79
2022-08-04T19:24:28.148Z,29.71
2022-08-04T19:28:17.557Z,29.61
2022-08-04T19:33:19.752Z,29.67
2022-08-04T19:38:27.344Z,29.70
2022-08-04T19:43:32.687Z,29.51
2022-08-04T19:48:35.210Z,29.38
2022-08-04T19:53:43.056Z,29.21
2022-08-04T19:58:48.104Z,28.99
2022-08-04T20:09:24.938Z,28.75
2022-08-04T20:14:31.236Z,28.70
2022-08-04T20:19:51.099Z,28.79
2022-08-04T20:25:18.045Z,28.60
2022-08-04T20:30:19.151Z,28.30
2022-08-04T20:35:25.905Z,28.06
2022-08-04T20:40:30.440Z,28.10
2022-08-04T20:45:56.580Z,28.09
2022-08-04T20:50:54.204Z,27.81
2022-08-04T20:55:56.395Z,27.55
2022-08-04T21:00:58.223Z,27.40
2022-08-04T21:05:59.925Z,27.28
2022-08-04T21:11:03.343Z,27.45
2022-08-04T21:16:08.419Z,27.09
2022-08-04T21:21:10.096Z,27.01
2022-08-04T21:26:22.501Z,26.84
2022-08-04T21:31:27.604Z,26.75
2022-08-04T21:36:29.470Z,26.55
2022-08-04T21:41:33.342Z,26.33
2022-08-04T21:46:39.546Z,26.34
2022-08-04T21:52:00.515Z,26.45
2022-08-04T22:02:24.845Z,26.28
2022-08-04T22:07:50.041Z,25.90
2022-08-04T22:12:52.020Z,25.74
2022-08-04T22:17:54.276Z,25.63
2022-08-04T22:23:01.708Z,25.66
2022-08-04T22:28:08.040Z,25.34
2022-08-04T22:33:10.265Z,25.21
2022-08-04T22:38:21.280Z,25.17
2022-08-04T22:43:34.418Z,25.11
2022-08-04T22:48:39.344Z,25.12
2022-08-04T22:53:48.943Z,25.11
2022-08-04T22:58:51.405Z,24.80
2022-08-04T23:03:55.222Z,24.60
2022-08-04T23:08:57.893Z,24.52
2022-08-04T23:14:00.938Z,24.57
2022-08-04T23:19:09.437Z,24.63
2022-08-04T23:24:11.749Z,24.69
2022-08-04T23:29:15.147Z,24.59
2022-08-04T23:34:18.797Z,24.47
2022-08-04T23:39:20.608Z,24.32
2022-08-04T23:44:25.248Z,24.30
2022-08-04T23:49:44.421Z,24.36
2022-08-04T23:54:46.880Z,24.38
2022-08-04T23:59:54.294Z,24.26
